aviador You're here:

OERK Decoded Metar

RIYADH in SAUDI ARABIA
Report Time2017-09-23 09:00:00
UTC Time2017-09-23 09:16:13
Flight Rules vfr VFR
Wind350° at 08 kt
W.Decomp.*RWY 33: 7.6 kt HW 2.5 kt RCW
W.Rank350° ranks 1
Current wind is above 350° avg. (7.7)
Visibility8000 m
Phenomena:N/A
Clouds:N/A
Expected CloudBase > 13,200 ft AGL from Temp-Dew spread
CeilingNone
Temp38°C (ISA +27)
Dew Point05°C (13% RH)
Heat Index35.4°C
AAT33.9°C
QNH1013 hPa
Density Alt5,157 ft
Elevation2,008 ft
Report Wrong Elevation
Raw Report
METAR OERK 230900Z 35008KT 8000 NSC 38/05 Q1013 NOSIG=

Extra information for OERK:More info

Metar Taf Metar & Taf Last 4 Metars F.Rules Stats Wind Profile Meteogram Temp Stats Airport Information Weather charts Add Link Nearby VenuesMetar ALERT Operation Metar Decoded Social comments